Time;durP1;ratioP1;P1;durP2;ratioP2;P2;SDS_P1;SDS_P2;PMS_P1;PMS_P2;Temp;Humidity;BMP_temperature;BMP_pressure;BME280_temperature;BME280_humidity;BME280_pressure;Samples;Min_cycle;Max_cycle;Signal;HPM_P1;HPM_P2
2023/05/29 00:01:13;;;;;;;;;15.33;11.00;;;;;;;;4950728;28;45419;-85
2023/05/29 00:03:38;;;;;;;;;11.67;8.00;;;;;;;;4959692;28;45502;-84
2023/05/29 00:06:05;;;;;;;;;14.00;11.67;;;;;;;;4960248;28;47118;-85
2023/05/29 00:08:31;;;;;;;;;16.67;10.00;;;;;;;;4957311;28;45497;-83
2023/05/29 00:10:56;;;;;;;;;10.33;8.33;;;;;;;;4958200;28;45353;-83
2023/05/29 00:13:21;;;;;;;;;12.67;10.33;;;;;;;;4954726;28;45504;-83
2023/05/29 00:15:47;;;;;;;;;15.67;12.00;;;;;;;;4944934;28;47080;-85
2023/05/29 00:18:12;;;;;;;;;12.33;11.00;;;;;;;;4949691;28;45598;-83
2023/05/29 00:20:38;;;;;;;;;13.00;8.33;;;;;;;;4950265;28;45780;-82
2023/05/29 00:23:04;;;;;;;;;14.00;10.67;;;;;;;;4951858;28;45898;-81
2023/05/29 00:25:29;;;;;;;;;15.00;10.33;;;;;;;;4949973;28;46856;-86
2023/05/29 00:27:55;;;;;;;;;11.00;8.67;;;;;;;;4947315;28;45887;-83
2023/05/29 00:30:20;;;;;;;;;9.00;6.33;;;;;;;;4952724;28;45636;-82
2023/05/29 00:32:45;;;;;;;;;18.00;12.33;;;;;;;;4953739;28;45935;-82
2023/05/29 00:35:11;;;;;;;;;14.67;11.00;;;;;;;;4953520;28;45704;-83
2023/05/29 00:37:36;;;;;;;;;16.33;14.33;;;;;;;;4955914;28;45410;-83
2023/05/29 00:40:01;;;;;;;;;9.67;9.00;;;;;;;;4952699;28;45361;-83
2023/05/29 00:42:27;;;;;;;;;8.67;7.00;;;;;;;;4953274;28;45809;-82
2023/05/29 00:44:52;;;;;;;;;9.33;9.00;;;;;;;;4950736;28;46076;-82
2023/05/29 00:47:17;;;;;;;;;8.67;8.00;;;;;;;;4950142;28;45854;-83
2023/05/29 00:49:43;;;;;;;;;11.00;8.33;;;;;;;;4950920;28;45506;-82
2023/05/29 00:52:09;;;;;;;;;14.00;9.00;;;;;;;;4953035;28;45537;-82
2023/05/29 00:54:35;;;;;;;;;9.33;8.67;;;;;;;;4952943;28;46104;-83
2023/05/29 00:57:01;;;;;;;;;9.33;7.00;;;;;;;;4953414;28;45575;-84
2023/05/29 00:59:29;;;;;;;;;12.00;11.00;;;;;;;;4953422;28;45885;-83
2023/05/29 01:01:55;;;;;;;;;8.00;5.67;;;;;;;;4950146;28;45514;-83
2023/05/29 01:04:23;;;;;;;;;11.00;11.00;;;;;;;;4951160;28;46164;-82
2023/05/29 01:06:49;;;;;;;;;11.00;8.67;;;;;;;;4944857;28;45801;-83
2023/05/29 01:09:14;;;;;;;;;6.67;5.67;;;;;;;;4952121;28;45138;-84
2023/05/29 01:11:57;;;;;;;;;9.33;8.00;;;;;;;;4952109;28;45737;-83
2023/05/29 01:14:25;;;;;;;;;13.00;8.33;;;;;;;;4953436;28;45881;-84
2023/05/29 01:17:03;;;;;;;;;12.33;11.00;;;;;;;;4955570;28;45538;-83
2023/05/29 01:19:34;;;;;;;;;14.33;9.33;;;;;;;;4962016;28;45385;-83
2023/05/29 01:22:02;;;;;;;;;13.00;8.33;;;;;;;;4956750;28;45487;-82
2023/05/29 01:24:36;;;;;;;;;11.33;11.33;;;;;;;;4952569;28;46444;-81
2023/05/29 01:27:03;;;;;;;;;7.00;6.00;;;;;;;;4950817;28;45709;-82
2023/05/29 01:29:32;;;;;;;;;10.33;10.33;;;;;;;;4952399;28;45470;-82
2023/05/29 01:31:58;;;;;;;;;9.67;7.33;;;;;;;;4961746;28;45507;-84
2023/05/29 01:34:23;;;;;;;;;12.33;10.33;;;;;;;;4962664;28;45625;-85
2023/05/29 01:36:49;;;;;;;;;8.33;8.33;;;;;;;;4960535;28;45849;-82
2023/05/29 01:42:26;;;;;;;;;10.67;9.00;;;;;;;;4953635;28;45433;-86
2023/05/29 01:44:51;;;;;;;;;9.00;8.33;;;;;;;;4954711;28;45787;-81
2023/05/29 01:47:16;;;;;;;;;9.67;9.33;;;;;;;;4948508;28;45614;-81
2023/05/29 01:49:43;;;;;;;;;13.33;7.67;;;;;;;;4950437;28;45717;-82
2023/05/29 01:52:09;;;;;;;;;16.33;11.00;;;;;;;;4952082;28;45989;-83
2023/05/29 01:54:34;;;;;;;;;16.00;10.33;;;;;;;;4946745;28;46164;-82
2023/05/29 01:57:02;;;;;;;;;10.00;8.33;;;;;;;;4946223;28;45897;-83
2023/05/29 01:59:28;;;;;;;;;9.00;8.33;;;;;;;;4952909;28;45580;-81
2023/05/29 02:01:53;;;;;;;;;12.00;10.33;;;;;;;;4941676;28;46978;-82
2023/05/29 02:04:19;;;;;;;;;10.33;9.33;;;;;;;;4946141;28;46513;-82
2023/05/29 02:06:44;;;;;;;;;13.67;11.00;;;;;;;;4954288;28;45967;-80
2023/05/29 02:09:10;;;;;;;;;9.33;6.67;;;;;;;;4949989;28;45444;-81
2023/05/29 02:11:35;;;;;;;;;9.67;8.67;;;;;;;;4950853;28;46857;-81
2023/05/29 02:14:03;;;;;;;;;13.33;11.00;;;;;;;;4945778;28;48004;-81
2023/05/29 02:16:28;;;;;;;;;13.00;11.00;;;;;;;;4947856;28;45859;-82
2023/05/29 02:18:54;;;;;;;;;15.00;11.33;;;;;;;;4949906;28;45727;-82
2023/05/29 02:21:19;;;;;;;;;13.67;11.67;;;;;;;;4950567;28;46693;-82
2023/05/29 02:23:45;;;;;;;;;12.67;10.67;;;;;;;;4958419;28;46929;-84
2023/05/29 02:26:15;;;;;;;;;9.00;7.33;;;;;;;;4947157;28;45408;-82
2023/05/29 02:28:40;;;;;;;;;15.67;10.00;;;;;;;;4955033;28;45675;-83
2023/05/29 02:31:06;;;;;;;;;9.67;7.33;;;;;;;;4958785;28;45501;-82
2023/05/29 02:33:31;;;;;;;;;12.33;8.33;;;;;;;;4953967;28;45350;-82
2023/05/29 02:35:56;;;;;;;;;13.33;12.00;;;;;;;;4954709;28;45351;-82
2023/05/29 02:38:23;;;;;;;;;12.00;10.00;;;;;;;;4964163;28;45841;-82
2023/05/29 02:40:48;;;;;;;;;11.00;9.00;;;;;;;;4946850;28;45870;-85
2023/05/29 02:43:14;;;;;;;;;14.33;12.33;;;;;;;;4953786;28;45485;-84
2023/05/29 02:45:42;;;;;;;;;7.67;4.67;;;;;;;;4959087;28;45670;-83
2023/05/29 02:48:08;;;;;;;;;9.00;7.33;;;;;;;;4955449;28;45730;-82
2023/05/29 02:50:33;;;;;;;;;6.67;5.67;;;;;;;;4954682;28;45567;-77
2023/05/29 02:52:58;;;;;;;;;13.00;12.00;;;;;;;;4953974;28;46460;-76
2023/05/29 02:55:24;;;;;;;;;13.33;13.33;;;;;;;;4953531;28;45864;-77
2023/05/29 02:57:52;;;;;;;;;14.33;8.67;;;;;;;;4953153;28;45686;-76
2023/05/29 03:00:18;;;;;;;;;10.67;9.33;;;;;;;;4969570;28;46291;-77
2023/05/29 03:02:43;;;;;;;;;13.67;10.33;;;;;;;;4954122;28;45437;-78
2023/05/29 03:05:09;;;;;;;;;13.33;11.33;;;;;;;;4951590;28;46079;-77
2023/05/29 03:07:34;;;;;;;;;15.67;9.67;;;;;;;;4950641;28;45421;-78
2023/05/29 03:10:00;;;;;;;;;17.33;12.33;;;;;;;;4952457;28;45649;-78
2023/05/29 03:12:27;;;;;;;;;14.33;11.67;;;;;;;;4954634;28;46008;-78
2023/05/29 03:14:52;;;;;;;;;5.00;4.00;;;;;;;;4954079;28;45533;-77
2023/05/29 03:17:19;;;;;;;;;8.33;6.33;;;;;;;;4953593;28;45341;-78
2023/05/29 03:19:44;;;;;;;;;15.67;12.00;;;;;;;;4951684;28;45756;-78
2023/05/29 03:22:09;;;;;;;;;15.00;12.00;;;;;;;;4945087;28;45936;-78
2023/05/29 03:24:35;;;;;;;;;16.67;13.00;;;;;;;;4954258;28;45432;-78
2023/05/29 03:27:00;;;;;;;;;15.33;14.33;;;;;;;;4950947;28;45786;-78
2023/05/29 03:29:25;;;;;;;;;15.67;13.67;;;;;;;;4950631;28;45773;-78
2023/05/29 03:31:51;;;;;;;;;12.33;11.00;;;;;;;;4958698;28;47509;-77
2023/05/29 03:34:16;;;;;;;;;14.67;12.00;;;;;;;;4952243;28;45419;-79
2023/05/29 03:36:42;;;;;;;;;13.33;9.67;;;;;;;;4944199;28;45299;-76
2023/05/29 03:39:07;;;;;;;;;26.00;21.00;;;;;;;;4945918;28;45845;-78
2023/05/29 03:41:32;;;;;;;;;12.00;11.67;;;;;;;;4954078;28;46253;-78
2023/05/29 03:43:58;;;;;;;;;15.00;12.33;;;;;;;;4953810;28;45886;-78
2023/05/29 03:46:27;;;;;;;;;16.67;13.00;;;;;;;;4951975;28;45987;-78
2023/05/29 03:48:52;;;;;;;;;24.67;20.00;;;;;;;;4956664;28;45903;-79
2023/05/29 03:51:17;;;;;;;;;16.33;13.00;;;;;;;;4941148;28;47426;-79
2023/05/29 03:53:43;;;;;;;;;19.33;14.67;;;;;;;;4952697;28;45437;-78
2023/05/29 03:56:08;;;;;;;;;15.67;13.33;;;;;;;;4953276;28;45782;-79
2023/05/29 03:58:33;;;;;;;;;16.33;14.67;;;;;;;;4954331;28;45773;-79
2023/05/29 04:00:58;;;;;;;;;24.00;15.33;;;;;;;;4953304;28;45730;-81
2023/05/29 04:03:24;;;;;;;;;15.00;14.33;;;;;;;;4940789;28;45734;-78
2023/05/29 04:05:49;;;;;;;;;14.67;13.00;;;;;;;;4966965;28;45536;-80
2023/05/29 04:08:15;;;;;;;;;15.00;15.00;;;;;;;;4957946;28;45473;-78
2023/05/29 04:10:40;;;;;;;;;23.67;17.33;;;;;;;;4957158;28;45381;-81
2023/05/29 04:13:06;;;;;;;;;15.33;12.00;;;;;;;;4947419;28;45389;-79
2023/05/29 04:15:33;;;;;;;;;20.00;15.67;;;;;;;;4947437;28;45518;-79
2023/05/29 04:17:58;;;;;;;;;17.67;14.67;;;;;;;;4959991;28;46078;-74
2023/05/29 04:20:23;;;;;;;;;17.33;15.00;;;;;;;;4954874;28;45408;-73
2023/05/29 04:22:48;;;;;;;;;20.33;16.00;;;;;;;;4945927;28;45783;-77
2023/05/29 04:25:15;;;;;;;;;13.33;11.67;;;;;;;;4949086;28;45448;-77
2023/05/29 04:27:40;;;;;;;;;17.33;13.33;;;;;;;;4953292;28;46320;-76
2023/05/29 04:30:06;;;;;;;;;21.00;14.67;;;;;;;;4954245;28;46966;-77
2023/05/29 04:32:32;;;;;;;;;53.00;39.00;;;;;;;;4955973;28;45584;-75
2023/05/29 04:35:02;;;;;;;;;15.67;14.67;;;;;;;;4951856;28;45477;-77
2023/05/29 04:37:29;;;;;;;;;25.67;19.00;;;;;;;;4957560;28;45518;-76
2023/05/29 04:39:54;;;;;;;;;13.67;11.33;;;;;;;;4951178;28;45465;-75
2023/05/29 04:42:19;;;;;;;;;18.67;15.33;;;;;;;;4957300;28;45381;-76
2023/05/29 04:44:44;;;;;;;;;14.33;14.33;;;;;;;;4960531;28;45428;-77
2023/05/29 04:47:12;;;;;;;;;18.67;12.33;;;;;;;;4955869;28;45710;-76
2023/05/29 04:49:37;;;;;;;;;21.67;16.00;;;;;;;;4957236;28;45674;-77
2023/05/29 04:52:04;;;;;;;;;16.00;14.33;;;;;;;;4952168;28;45636;-80
2023/05/29 04:54:30;;;;;;;;;18.33;16.33;;;;;;;;4953648;28;45719;-73
2023/05/29 04:56:55;;;;;;;;;15.67;15.67;;;;;;;;4949710;28;45733;-72
2023/05/29 04:59:20;;;;;;;;;15.33;14.67;;;;;;;;4954594;28;47492;-72
2023/05/29 05:01:47;;;;;;;;;12.00;7.33;;;;;;;;4942524;28;45584;-73
2023/05/29 05:04:12;;;;;;;;;15.33;15.33;;;;;;;;4954234;28;45555;-72
2023/05/29 05:06:39;;;;;;;;;17.00;16.33;;;;;;;;4954641;28;45587;-71
2023/05/29 05:09:04;;;;;;;;;22.00;15.33;;;;;;;;4957528;28;47220;-74
2023/05/29 05:11:29;;;;;;;;;15.33;14.00;;;;;;;;4956155;28;45789;-73
2023/05/29 05:13:55;;;;;;;;;19.67;14.33;;;;;;;;4949764;28;45357;-72
2023/05/29 05:16:20;;;;;;;;;20.33;16.33;;;;;;;;4942809;28;45785;-74
2023/05/29 05:18:45;;;;;;;;;14.67;14.00;;;;;;;;4944408;28;45540;-73
2023/05/29 05:21:11;;;;;;;;;17.67;14.33;;;;;;;;4941772;28;45689;-74
2023/05/29 05:23:36;;;;;;;;;16.67;11.00;;;;;;;;4943540;28;45552;-72
2023/05/29 05:26:02;;;;;;;;;15.67;14.67;;;;;;;;4942418;28;45503;-75
2023/05/29 05:28:27;;;;;;;;;14.00;13.00;;;;;;;;4945838;28;45701;-74
2023/05/29 05:30:52;;;;;;;;;17.67;15.33;;;;;;;;4951905;28;45721;-74
2023/05/29 05:33:25;;;;;;;;;18.33;12.67;;;;;;;;4953779;28;45770;-85
2023/05/29 05:35:51;;;;;;;;;13.33;10.67;;;;;;;;4946615;28;45651;-75
2023/05/29 05:38:17;;;;;;;;;15.67;14.00;;;;;;;;4944643;28;45891;-75
2023/05/29 05:40:44;;;;;;;;;16.33;15.33;;;;;;;;4937410;28;45504;-75
2023/05/29 05:43:10;;;;;;;;;17.00;14.33;;;;;;;;4941182;28;45669;-77
2023/05/29 05:45:36;;;;;;;;;11.00;4.67;;;;;;;;4942411;28;45921;-75
2023/05/29 05:48:01;;;;;;;;;17.33;14.67;;;;;;;;4940918;28;46563;-73
2023/05/29 05:50:26;;;;;;;;;14.33;12.33;;;;;;;;4940324;28;45657;-72
2023/05/29 05:52:51;;;;;;;;;12.00;10.67;;;;;;;;4944375;28;45864;-73
2023/05/29 05:55:17;;;;;;;;;15.33;14.33;;;;;;;;4959603;28;46600;-73
2023/05/29 05:57:42;;;;;;;;;17.00;14.33;;;;;;;;4955626;28;47850;-73
2023/05/29 06:00:11;;;;;;;;;17.67;14.67;;;;;;;;4957412;28;45468;-73
2023/05/29 06:02:36;;;;;;;;;18.00;14.33;;;;;;;;4951731;28;45542;-72
2023/05/29 06:05:03;;;;;;;;;13.00;13.00;;;;;;;;4951944;28;45723;-73
2023/05/29 06:07:28;;;;;;;;;13.67;13.00;;;;;;;;4958947;28;47083;-73
2023/05/29 06:09:54;;;;;;;;;20.00;19.00;;;;;;;;4949133;28;45364;-72
2023/05/29 06:12:19;;;;;;;;;13.67;12.67;;;;;;;;4948888;28;45713;-72
2023/05/29 06:14:44;;;;;;;;;15.33;11.67;;;;;;;;4947483;28;45605;-72
2023/05/29 06:17:09;;;;;;;;;12.00;11.33;;;;;;;;4949458;28;45858;-71
2023/05/29 06:19:35;;;;;;;;;15.33;13.33;;;;;;;;4939983;28;45776;-73
2023/05/29 06:22:00;;;;;;;;;19.33;15.33;;;;;;;;4951700;28;45576;-73
2023/05/29 06:24:26;;;;;;;;;13.67;12.00;;;;;;;;4949367;28;45837;-73
2023/05/29 06:26:51;;;;;;;;;10.00;9.33;;;;;;;;4953974;28;45525;-74
2023/05/29 06:29:16;;;;;;;;;19.00;17.33;;;;;;;;4952411;28;45905;-72
2023/05/29 06:31:42;;;;;;;;;15.33;14.33;;;;;;;;4963640;28;45322;-74
2023/05/29 06:34:07;;;;;;;;;17.67;15.67;;;;;;;;4952321;28;45510;-73
2023/05/29 06:36:32;;;;;;;;;14.33;13.33;;;;;;;;4952078;28;45599;-73
2023/05/29 06:38:57;;;;;;;;;8.67;7.00;;;;;;;;4952061;28;45459;-72
2023/05/29 06:41:23;;;;;;;;;15.67;12.33;;;;;;;;4951169;28;45679;-75
2023/05/29 06:43:48;;;;;;;;;19.00;13.67;;;;;;;;4949650;28;45901;-75
2023/05/29 06:46:14;;;;;;;;;12.00;10.33;;;;;;;;4947000;28;47881;-75
2023/05/29 06:48:39;;;;;;;;;17.00;15.67;;;;;;;;4939409;28;45479;-71
2023/05/29 06:51:08;;;;;;;;;18.00;15.67;;;;;;;;4950005;28;45541;-73
2023/05/29 06:53:35;;;;;;;;;12.67;9.67;;;;;;;;4951027;28;45457;-75
2023/05/29 06:56:00;;;;;;;;;15.33;15.00;;;;;;;;4951051;28;45458;-74
2023/05/29 06:58:25;;;;;;;;;10.67;9.33;;;;;;;;4961886;28;45412;-73
2023/05/29 07:00:50;;;;;;;;;14.00;13.67;;;;;;;;4947039;28;45292;-73
2023/05/29 07:03:16;;;;;;;;;19.00;14.33;;;;;;;;4947552;28;46899;-74
2023/05/29 07:05:41;;;;;;;;;16.67;16.67;;;;;;;;4943490;28;47955;-74
2023/05/29 07:08:07;;;;;;;;;16.33;11.67;;;;;;;;4931167;28;45804;-73
2023/05/29 07:10:32;;;;;;;;;17.00;15.33;;;;;;;;4951016;28;45749;-74
2023/05/29 07:12:57;;;;;;;;;21.00;17.33;;;;;;;;4951382;28;45456;-73
2023/05/29 07:15:22;;;;;;;;;15.00;13.00;;;;;;;;4954161;28;45487;-74
2023/05/29 07:17:49;;;;;;;;;16.00;13.67;;;;;;;;4952805;28;45774;-74
2023/05/29 07:20:14;;;;;;;;;18.00;14.67;;;;;;;;4952678;28;45995;-74
2023/05/29 07:22:40;;;;;;;;;17.33;12.33;;;;;;;;4944523;28;45644;-74
2023/05/29 07:25:05;;;;;;;;;17.33;13.00;;;;;;;;4960155;28;45962;-82
2023/05/29 07:27:31;;;;;;;;;19.67;16.00;;;;;;;;4958707;28;45825;-82
2023/05/29 07:29:56;;;;;;;;;15.67;12.67;;;;;;;;4944465;28;45499;-82
2023/05/29 07:32:21;;;;;;;;;11.67;10.00;;;;;;;;4958827;28;45413;-82
2023/05/29 07:34:50;;;;;;;;;16.33;12.00;;;;;;;;4956801;28;45420;-81
2023/05/29 07:37:15;;;;;;;;;11.50;11.25;;;;;;;;4944129;28;45692;-75
2023/05/29 07:39:41;;;;;;;;;15.33;13.00;;;;;;;;4953368;28;45374;-72
2023/05/29 07:42:06;;;;;;;;;10.33;9.00;;;;;;;;4960504;28;45382;-76
2023/05/29 07:44:31;;;;;;;;;8.67;8.33;;;;;;;;4954759;28;45362;-73
2023/05/29 07:46:57;;;;;;;;;15.75;13.25;;;;;;;;4970015;28;45269;-74
2023/05/29 07:49:22;;;;;;;;;13.50;11.75;;;;;;;;4965063;28;45757;-83
2023/05/29 07:51:49;;;;;;;;;17.00;15.25;;;;;;;;4970025;28;45378;-79
2023/05/29 07:54:18;;;;;;;;;20.50;18.00;;;;;;;;4977121;28;45403;-82
2023/05/29 07:56:43;;;;;;;;;15.33;14.33;;;;;;;;4964739;28;45487;-80
2023/05/29 07:59:09;;;;;;;;;19.00;16.67;;;;;;;;4986567;28;45321;-80
2023/05/29 08:01:35;;;;;;;;;13.67;12.00;;;;;;;;4972250;28;45697;-83
2023/05/29 08:04:00;;;;;;;;;18.00;16.33;;;;;;;;4984094;28;46239;-82
2023/05/29 08:06:26;;;;;;;;;11.50;11.50;;;;;;;;4971124;28;45381;-81
2023/05/29 08:08:51;;;;;;;;;17.75;12.75;;;;;;;;4964894;28;45400;-81
2023/05/29 08:11:17;;;;;;;;;15.67;14.67;;;;;;;;4982245;28;45273;-80
2023/05/29 08:13:42;;;;;;;;;16.33;15.67;;;;;;;;4980867;28;45456;-82
2023/05/29 08:16:08;;;;;;;;;19.75;15.50;;;;;;;;4971157;28;44795;-80
2023/05/29 08:18:33;;;;;;;;;19.00;15.00;;;;;;;;4972650;28;45405;-80
2023/05/29 08:20:59;;;;;;;;;18.25;16.00;;;;;;;;4981837;28;46022;-80
2023/05/29 08:23:24;;;;;;;;;12.67;11.33;;;;;;;;4984139;28;45464;-80
2023/05/29 08:25:49;;;;;;;;;13.33;10.00;;;;;;;;4970580;28;44819;-79
2023/05/29 08:28:15;;;;;;;;;13.00;12.67;;;;;;;;4971100;28;45514;-80
2023/05/29 08:30:40;;;;;;;;;17.00;12.33;;;;;;;;4965720;28;44762;-81
2023/05/29 08:33:06;;;;;;;;;14.33;12.33;;;;;;;;4962531;28;46830;-81
2023/05/29 08:35:32;;;;;;;;;20.67;16.33;;;;;;;;4989900;28;45458;-80
2023/05/29 08:37:58;;;;;;;;;19.33;14.67;;;;;;;;4976349;28;45807;-80
2023/05/29 08:40:23;;;;;;;;;13.67;13.00;;;;;;;;4958066;28;45716;-80
2023/05/29 08:42:59;;;;;;;;;20.00;18.00;;;;;;;;4970523;28;45386;-80
2023/05/29 08:45:25;;;;;;;;;16.33;15.33;;;;;;;;4977416;28;45491;-81
2023/05/29 08:47:51;;;;;;;;;15.67;15.00;;;;;;;;4976017;28;45295;-80
2023/05/29 08:50:17;;;;;;;;;22.00;18.33;;;;;;;;4966749;28;45398;-81
2023/05/29 08:52:43;;;;;;;;;20.67;15.33;;;;;;;;4967561;28;45610;-84
2023/05/29 08:55:09;;;;;;;;;17.33;16.00;;;;;;;;4981484;28;45498;-80
2023/05/29 08:57:36;;;;;;;;;16.33;15.67;;;;;;;;4984986;28;45816;-79
2023/05/29 09:00:08;;;;;;;;;14.33;13.00;;;;;;;;4980091;28;45404;-80
2023/05/29 09:02:35;;;;;;;;;15.33;15.00;;;;;;;;4983473;28;45469;-80
2023/05/29 09:05:00;;;;;;;;;15.67;15.33;;;;;;;;4965644;28;45309;-82
2023/05/29 09:07:26;;;;;;;;;16.25;15.00;;;;;;;;4955185;28;45428;-82
2023/05/29 09:09:52;;;;;;;;;17.33;15.67;;;;;;;;4983000;28;45768;-79
2023/05/29 09:12:17;;;;;;;;;16.00;15.00;;;;;;;;4966551;28;45607;-79
2023/05/29 09:14:44;;;;;;;;;19.00;15.33;;;;;;;;4971777;28;45200;-79
2023/05/29 09:17:09;;;;;;;;;18.00;14.00;;;;;;;;4950212;28;45465;-73
2023/05/29 09:19:40;;;;;;;;;17.00;16.00;;;;;;;;4956826;28;45695;-74
2023/05/29 09:22:07;;;;;;;;;13.33;13.33;;;;;;;;4959066;28;45761;-72
2023/05/29 09:24:33;;;;;;;;;42.67;35.00;;;;;;;;4951609;28;44967;-73
2023/05/29 09:27:00;;;;;;;;;18.67;14.00;;;;;;;;4955756;28;45423;-72
2023/05/29 09:29:25;;;;;;;;;15.67;14.67;;;;;;;;4949675;28;46017;-77
2023/05/29 09:31:50;;;;;;;;;14.67;13.67;;;;;;;;4958394;28;46888;-74
2023/05/29 09:34:16;;;;;;;;;14.67;13.33;;;;;;;;4942574;28;45405;-73
2023/05/29 09:36:41;;;;;;;;;17.67;16.33;;;;;;;;4955297;28;45735;-71
2023/05/29 09:39:09;;;;;;;;;13.67;13.00;;;;;;;;4949512;28;45490;-71
2023/05/29 09:41:35;;;;;;;;;17.67;15.33;;;;;;;;4953876;28;45435;-72
2023/05/29 09:44:00;;;;;;;;;16.00;14.00;;;;;;;;4964512;28;45400;-73
2023/05/29 09:46:26;;;;;;;;;18.00;18.00;;;;;;;;4956173;28;46120;-72
2023/05/29 09:48:51;;;;;;;;;15.33;14.33;;;;;;;;4956360;28;45773;-72
2023/05/29 09:51:23;;;;;;;;;17.00;16.00;;;;;;;;4955967;28;46341;-75
2023/05/29 09:53:50;;;;;;;;;17.00;15.33;;;;;;;;4955915;28;45697;-74
2023/05/29 09:56:17;;;;;;;;;15.67;12.00;;;;;;;;4956258;28;45749;-74
2023/05/29 09:58:45;;;;;;;;;12.00;10.33;;;;;;;;4964583;28;45857;-74
2023/05/29 10:01:12;;;;;;;;;14.33;14.33;;;;;;;;4955254;28;46095;-74
2023/05/29 10:03:38;;;;;;;;;23.67;18.67;;;;;;;;4944099;28;45461;-73
2023/05/29 10:06:05;;;;;;;;;13.67;13.67;;;;;;;;4952476;28;45782;-81
2023/05/29 10:08:32;;;;;;;;;12.67;12.67;;;;;;;;4973357;28;45562;-81
2023/05/29 10:11:09;;;;;;;;;15.33;14.00;;;;;;;;4985946;28;45128;-81
2023/05/29 10:13:38;;;;;;;;;18.00;16.00;;;;;;;;4978940;28;45359;-81
2023/05/29 10:16:07;;;;;;;;;14.00;14.00;;;;;;;;4984423;28;45448;-82
2023/05/29 10:18:38;;;;;;;;;15.25;14.25;;;;;;;;4972295;28;45431;-81
2023/05/29 10:21:04;;;;;;;;;16.00;15.00;;;;;;;;4965354;28;45678;-81
2023/05/29 10:23:29;;;;;;;;;14.67;14.67;;;;;;;;4967138;28;45444;-81
2023/05/29 10:26:04;;;;;;;;;15.67;14.00;;;;;;;;4952640;28;45713;-81
2023/05/29 10:28:30;;;;;;;;;29.67;26.33;;;;;;;;4958396;28;44901;-81
2023/05/29 10:31:01;;;;;;;;;16.67;16.33;;;;;;;;4961611;28;45411;-79
2023/05/29 10:33:26;;;;;;;;;14.00;13.33;;;;;;;;4957961;28;45745;-81
2023/05/29 10:36:01;;;;;;;;;15.75;15.00;;;;;;;;4953951;28;46041;-80
2023/05/29 10:38:26;;;;;;;;;18.33;16.33;;;;;;;;4967317;28;46325;-78
2023/05/29 10:40:51;;;;;;;;;12.75;12.25;;;;;;;;4952452;28;45731;-80
2023/05/29 10:43:37;;;;;;;;;13.67;13.67;;;;;;;;4957071;28;45440;-77
2023/05/29 10:46:03;;;;;;;;;15.67;14.67;;;;;;;;4958541;28;45389;-80
2023/05/29 10:48:28;;;;;;;;;14.33;13.33;;;;;;;;4964113;28;45419;-80
2023/05/29 10:50:56;;;;;;;;;18.33;14.33;;;;;;;;4976671;28;47324;-79
2023/05/29 10:53:32;;;;;;;;;13.00;12.25;;;;;;;;4972332;28;45225;-84
2023/05/29 10:56:05;;;;;;;;;17.00;14.00;;;;;;;;4956215;28;45793;-79
2023/05/29 10:58:31;;;;;;;;;12.33;10.00;;;;;;;;4961085;28;45547;-84
2023/05/29 11:00:58;;;;;;;;;14.67;12.33;;;;;;;;4965475;28;46995;-80
2023/05/29 11:03:27;;;;;;;;;19.33;14.33;;;;;;;;4971075;28;45345;-81
2023/05/29 11:06:04;;;;;;;;;12.67;12.33;;;;;;;;4972714;28;45762;-83
2023/05/29 11:08:34;;;;;;;;;13.33;12.00;;;;;;;;4967168;28;45832;-81
2023/05/29 11:11:00;;;;;;;;;18.33;15.00;;;;;;;;4968234;28;45724;-81
2023/05/29 11:13:26;;;;;;;;;13.25;11.50;;;;;;;;4967096;28;45461;-80
2023/05/29 11:16:05;;;;;;;;;14.33;12.67;;;;;;;;4963675;28;45373;-83
2023/05/29 11:18:30;;;;;;;;;16.00;13.33;;;;;;;;4982404;28;45304;-82
2023/05/29 11:21:02;;;;;;;;;14.00;10.33;;;;;;;;4973631;28;44936;-82
2023/05/29 11:23:44;;;;;;;;;14.67;14.67;;;;;;;;4976024;28;45472;-85
2023/05/29 11:26:09;;;;;;;;;14.00;14.00;;;;;;;;4975877;28;45040;-84
2023/05/29 11:29:16;;;;;;;;;;;;;;;;;;;;;
2023/05/29 11:35:16;;;;;;;;;15.33;13.00;;;;;;;;4952850;28;45045;-83
2023/05/29 11:37:44;;;;;;;;;16.67;12.67;;;;;;;;4977910;28;45343;-84
2023/05/29 11:40:09;;;;;;;;;11.33;9.67;;;;;;;;4965882;28;45530;-82
2023/05/29 11:42:35;;;;;;;;;16.00;15.67;;;;;;;;4975469;28;45562;-82
2023/05/29 11:45:10;;;;;;;;;16.33;15.33;;;;;;;;4970220;28;45809;-83
2023/05/29 11:47:54;;;;;;;;;18.33;15.67;;;;;;;;4980798;28;45821;-82
2023/05/29 11:50:20;;;;;;;;;17.67;14.00;;;;;;;;4974211;28;45413;-85
2023/05/29 11:52:46;;;;;;;;;15.67;13.67;;;;;;;;4963890;28;45481;-86
2023/05/29 11:55:13;;;;;;;;;16.00;14.00;;;;;;;;4963406;28;45302;-85
2023/05/29 11:57:38;;;;;;;;;11.67;11.67;;;;;;;;4975616;28;45432;-85
2023/05/29 12:00:09;;;;;;;;;12.67;11.67;;;;;;;;4983706;28;44772;-85
2023/05/29 12:02:35;;;;;;;;;14.00;13.00;;;;;;;;4983266;28;45411;-82
2023/05/29 12:05:04;;;;;;;;;12.00;11.67;;;;;;;;4965097;28;45491;-79
2023/05/29 12:07:29;;;;;;;;;16.33;13.00;;;;;;;;4964263;28;45741;-81
2023/05/29 12:09:57;;;;;;;;;9.67;7.00;;;;;;;;4967088;28;46185;-80
2023/05/29 12:12:33;;;;;;;;;10.33;8.67;;;;;;;;4972482;28;45433;-88
2023/05/29 12:14:59;;;;;;;;;9.67;7.67;;;;;;;;4977321;28;45001;-84
2023/05/29 12:17:27;;;;;;;;;13.00;10.67;;;;;;;;4961568;28;45409;-81
2023/05/29 12:19:52;;;;;;;;;13.33;11.67;;;;;;;;4969291;28;45933;-81
2023/05/29 12:22:17;;;;;;;;;8.00;8.00;;;;;;;;4967102;28;48111;-80
2023/05/29 12:24:46;;;;;;;;;10.67;9.67;;;;;;;;4962041;28;45476;-80
2023/05/29 12:27:11;;;;;;;;;8.33;8.33;;;;;;;;4960492;28;44877;-79
2023/05/29 12:29:39;;;;;;;;;6.67;6.67;;;;;;;;4967440;28;45679;-80
2023/05/29 12:32:08;;;;;;;;;13.00;8.67;;;;;;;;4975241;28;46064;-81
2023/05/29 12:34:36;;;;;;;;;7.67;7.00;;;;;;;;4953948;28;45308;-80
2023/05/29 12:37:09;;;;;;;;;5.67;4.00;;;;;;;;4964667;28;45416;-81
2023/05/29 12:39:35;;;;;;;;;7.67;7.67;;;;;;;;4969070;28;45438;-80
2023/05/29 12:42:00;;;;;;;;;11.00;7.00;;;;;;;;4964370;28;46855;-80
2023/05/29 12:44:25;;;;;;;;;9.67;5.00;;;;;;;;4957120;28;45201;-80
2023/05/29 12:46:56;;;;;;;;;7.00;5.00;;;;;;;;4978734;28;45401;-81
2023/05/29 12:49:25;;;;;;;;;6.25;6.25;;;;;;;;4990552;28;46670;-80
2023/05/29 12:51:52;;;;;;;;;8.33;5.00;;;;;;;;4960419;28;46415;-80
2023/05/29 12:54:17;;;;;;;;;5.00;3.33;;;;;;;;4958810;28;45543;-79
2023/05/29 12:56:42;;;;;;;;;7.67;6.33;;;;;;;;4969732;28;45508;-78
2023/05/29 12:59:14;;;;;;;;;5.00;4.67;;;;;;;;4972425;28;45851;-85
2023/05/29 13:01:43;;;;;;;;;3.00;2.00;;;;;;;;4972911;28;45440;-87
2023/05/29 13:04:09;;;;;;;;;5.67;4.67;;;;;;;;4977628;28;44934;-84
2023/05/29 13:06:37;;;;;;;;;8.33;5.67;;;;;;;;4969620;28;45216;-84
2023/05/29 13:09:02;;;;;;;;;1.33;1.33;;;;;;;;4972855;28;46371;-85
2023/05/29 13:11:28;;;;;;;;;12.00;8.33;;;;;;;;4974679;28;46679;-83
2023/05/29 13:13:53;;;;;;;;;4.00;4.00;;;;;;;;4978190;28;44837;-84
2023/05/29 13:16:18;;;;;;;;;8.67;4.33;;;;;;;;4979579;28;45197;-85
2023/05/29 13:18:44;;;;;;;;;8.00;6.67;;;;;;;;4982024;28;45703;-83
2023/05/29 13:21:12;;;;;;;;;8.67;7.67;;;;;;;;4975146;28;47047;-83
2023/05/29 13:23:37;;;;;;;;;4.33;4.33;;;;;;;;4977587;28;46034;-83
2023/05/29 13:26:06;;;;;;;;;6.67;4.00;;;;;;;;4984020;28;44788;-83
2023/05/29 13:28:31;;;;;;;;;8.67;7.33;;;;;;;;4975442;28;46106;-84
2023/05/29 13:31:00;;;;;;;;;8.33;6.00;;;;;;;;4979646;28;45467;-83
2023/05/29 13:33:25;;;;;;;;;8.00;5.33;;;;;;;;4970789;28;45843;-85
2023/05/29 13:35:51;;;;;;;;;4.67;2.67;;;;;;;;4978409;28;45545;-82
2023/05/29 13:38:16;;;;;;;;;4.67;4.33;;;;;;;;4976696;28;45858;-85
2023/05/29 13:40:41;;;;;;;;;11.00;6.33;;;;;;;;4973814;28;45210;-83
2023/05/29 13:43:07;;;;;;;;;7.33;5.33;;;;;;;;4979651;28;45414;-84
2023/05/29 13:45:32;;;;;;;;;6.33;5.00;;;;;;;;4983402;28;45430;-81
2023/05/29 13:47:58;;;;;;;;;8.00;7.00;;;;;;;;4973238;28;46196;-83
2023/05/29 13:50:24;;;;;;;;;8.00;4.00;;;;;;;;4982660;28;45316;-83
2023/05/29 13:52:50;;;;;;;;;7.67;6.33;;;;;;;;4979777;28;44821;-83
2023/05/29 13:55:21;;;;;;;;;4.00;3.00;;;;;;;;4976840;28;45491;-84
2023/05/29 13:58:01;;;;;;;;;5.00;5.00;;;;;;;;4987271;28;45805;-86
2023/05/29 14:00:27;;;;;;;;;7.67;4.67;;;;;;;;4971422;28;47117;-86
2023/05/29 14:02:52;;;;;;;;;2.00;2.00;;;;;;;;4972452;28;44847;-85
2023/05/29 14:05:24;;;;;;;;;8.33;4.00;;;;;;;;4982606;28;44854;-83
2023/05/29 14:07:49;;;;;;;;;7.50;6.25;;;;;;;;4986644;28;45812;-84
2023/05/29 14:10:21;;;;;;;;;9.00;5.00;;;;;;;;4984044;28;45362;-83
2023/05/29 14:12:55;;;;;;;;;4.00;4.00;;;;;;;;4982260;28;45154;-84
2023/05/29 14:15:20;;;;;;;;;6.00;4.33;;;;;;;;4971101;28;45484;-83
2023/05/29 14:17:46;;;;;;;;;4.00;4.00;;;;;;;;4982388;28;44786;-85
2023/05/29 14:20:22;;;;;;;;;9.33;7.00;;;;;;;;4988636;28;45160;-82
2023/05/29 14:22:47;;;;;;;;;13.33;7.33;;;;;;;;4970839;28;44779;-82
2023/05/29 14:25:12;;;;;;;;;5.00;5.00;;;;;;;;4987046;28;44738;-84
2023/05/29 14:27:38;;;;;;;;;4.67;4.00;;;;;;;;4995400;28;44850;-84